Aérodrome :
LOGIN :

S'inscrire | Disclaimer

   EN    FR    IT 

 










Légende :    VFR   VFR Marginal   IFR   IFR Intensif   IFR Très Intensif
Visi : 
Plafond : 
>= 8 km
>= 3000ft
5 à 8 km
1000 à 3000 ft
1500m à 5 km
500 à 1000 ft
800 à 1500m
200 à 500 ft
< 800m
< 200 ft
Symboles :   Orages  Brouillard  Fortes neiges  Fortes précipitations  Vent > 20 kt
SIGMETs :   Divers  Orages  Givrage  Turbulence  Onde Orograph.  Cendres Volcan.







- Altitude de l'aérodrome : 1768 ft


LEHC - Huesca Pirineos

DERNIER METAR :
  • 231000Z 25006KT 9999 SCT025 06/01 Q1010

METARs EXPIRÉS :
  • 230930Z 25007KT 200V300 9999 SCT025 06/02 Q1010
  • 230900Z 25008KT 220V290 9999 SCT025 06/01 Q1010
  • 230830Z 25009KT 210V280 9999 FEW030 05/02 Q1010
  • 230800Z 24006KT 210V280 9999 FEW030 05/03 Q1009
  • 230730Z AUTO 25005KT 220V290 9999 BKN050 04/03 Q1009

TAF TAF LEHC
Valide du 23 à 09h jusqu'au 24 à 09h UTC


230800Z 2309/2409 VRB04KT 9999 FEW050 TX12/2314Z TN04/2406Z
TEMPO 2309/2317 27008KT
BECMG 2320/2322 08008KT
Pas de NOTAMs connus pour ce terrain.
1 SIGMET publié pour la FIR Madrid (LECM) :
 
Orages noyés dans la masse
LECM SIGMET 2 VALID 231004/231200 LEVA
LECM MADRID FIR/UIR EMBD TS OBS AT 1004Z WI N4320 W01030 - N4220 W01010 - N4330 W00730 - N4410 W00750 TOP FL300 STNR NC=



MET'MAP, la Météo Aéronautique d'un coup d'oeil ! - Copyright ORBIFLY Décembre 2007 - Disclaimer

ORBIFLY MET'MAP TEAM :

Programmation & Développement : Alexandra Zaïnal
Conception & Développement : Baudouin d'Aumeries
Co-Programmation & Développement : Marc-Olivier Méhu
Soutien technique & logistique : Manuel Goepfert

Contact : metmap@orbifly.com




SOURCES & CREDITS :

   NOAA